sensor_id;sensor_type;location;lat;lon;timestamp;P1;durP1;ratioP1;P2;durP2;ratioP2
25721;SDS011;13578;53.450;15.496;2024-03-02T00:01:03;89.95;;;42.72;;
25721;SDS011;13578;53.450;15.496;2024-03-02T00:04:04;94.85;;;43.05;;
25721;SDS011;13578;53.450;15.496;2024-03-02T00:07:06;83.53;;;41.80;;
25721;SDS011;13578;53.450;15.496;2024-03-02T00:10:08;80.10;;;41.30;;
25721;SDS011;13578;53.450;15.496;2024-03-02T00:13:13;76.85;;;39.08;;
25721;SDS011;13578;53.450;15.496;2024-03-02T00:16:14;89.80;;;42.13;;
25721;SDS011;13578;53.450;15.496;2024-03-02T00:19:16;87.25;;;42.83;;
25721;SDS011;13578;53.450;15.496;2024-03-02T00:22:17;83.22;;;40.40;;
25721;SDS011;13578;53.450;15.496;2024-03-02T00:25:18;80.78;;;39.58;;
25721;SDS011;13578;53.450;15.496;2024-03-02T00:28:22;83.95;;;42.17;;
25721;SDS011;13578;53.450;15.496;2024-03-02T00:31:24;79.88;;;41.95;;
25721;SDS011;13578;53.450;15.496;2024-03-02T00:34:25;78.97;;;38.33;;
25721;SDS011;13578;53.450;15.496;2024-03-02T00:37:26;87.45;;;39.25;;
25721;SDS011;13578;53.450;15.496;2024-03-02T00:40:27;82.18;;;42.75;;
25721;SDS011;13578;53.450;15.496;2024-03-02T00:46:54;80.90;;;40.30;;
25721;SDS011;13578;53.450;15.496;2024-03-02T00:49:55;80.07;;;39.80;;
25721;SDS011;13578;53.450;15.496;2024-03-02T00:52:56;79.70;;;39.22;;
25721;SDS011;13578;53.450;15.496;2024-03-02T00:55:56;81.32;;;40.50;;
25721;SDS011;13578;53.450;15.496;2024-03-02T00:58:57;74.45;;;35.90;;
25721;SDS011;13578;53.450;15.496;2024-03-02T01:01:58;78.22;;;37.53;;
25721;SDS011;13578;53.450;15.496;2024-03-02T01:04:59;69.40;;;35.00;;
25721;SDS011;13578;53.450;15.496;2024-03-02T01:07:59;75.57;;;36.42;;
25721;SDS011;13578;53.450;15.496;2024-03-02T01:11:00;84.35;;;36.58;;
25721;SDS011;13578;53.450;15.496;2024-03-02T01:14:02;79.30;;;37.13;;
25721;SDS011;13578;53.450;15.496;2024-03-02T01:17:02;79.07;;;35.45;;
25721;SDS011;13578;53.450;15.496;2024-03-02T01:20:04;82.95;;;38.22;;
25721;SDS011;13578;53.450;15.496;2024-03-02T01:23:08;72.38;;;34.80;;
25721;SDS011;13578;53.450;15.496;2024-03-02T01:26:10;74.60;;;37.05;;
25721;SDS011;13578;53.450;15.496;2024-03-02T01:29:10;74.47;;;37.92;;
25721;SDS011;13578;53.450;15.496;2024-03-02T01:32:11;75.43;;;36.67;;
25721;SDS011;13578;53.450;15.496;2024-03-02T01:35:12;79.20;;;38.13;;
25721;SDS011;13578;53.450;15.496;2024-03-02T01:38:12;70.72;;;37.53;;
25721;SDS011;13578;53.450;15.496;2024-03-02T01:41:13;72.65;;;37.55;;
25721;SDS011;13578;53.450;15.496;2024-03-02T01:44:14;76.78;;;35.97;;
25721;SDS011;13578;53.450;15.496;2024-03-02T01:47:15;76.65;;;39.17;;
25721;SDS011;13578;53.450;15.496;2024-03-02T01:50:16;75.75;;;37.33;;
25721;SDS011;13578;53.450;15.496;2024-03-02T01:53:25;74.28;;;37.03;;
25721;SDS011;13578;53.450;15.496;2024-03-02T01:56:26;79.43;;;39.30;;
25721;SDS011;13578;53.450;15.496;2024-03-02T01:59:26;74.63;;;40.28;;
25721;SDS011;13578;53.450;15.496;2024-03-02T02:02:27;82.30;;;43.08;;
25721;SDS011;13578;53.450;15.496;2024-03-02T02:05:28;78.82;;;37.42;;
25721;SDS011;13578;53.450;15.496;2024-03-02T02:08:29;81.50;;;40.50;;
25721;SDS011;13578;53.450;15.496;2024-03-02T02:11:30;83.90;;;40.80;;
25721;SDS011;13578;53.450;15.496;2024-03-02T02:14:31;79.40;;;42.22;;
25721;SDS011;13578;53.450;15.496;2024-03-02T02:17:31;79.78;;;41.05;;
25721;SDS011;13578;53.450;15.496;2024-03-02T02:20:32;80.20;;;40.53;;
25721;SDS011;13578;53.450;15.496;2024-03-02T02:23:33;85.72;;;39.92;;
25721;SDS011;13578;53.450;15.496;2024-03-02T02:26:33;95.38;;;42.17;;
25721;SDS011;13578;53.450;15.496;2024-03-02T02:29:34;89.22;;;42.40;;
25721;SDS011;13578;53.450;15.496;2024-03-02T02:32:35;84.18;;;42.45;;
25721;SDS011;13578;53.450;15.496;2024-03-02T02:35:36;92.45;;;42.83;;
25721;SDS011;13578;53.450;15.496;2024-03-02T02:38:44;83.05;;;42.95;;
25721;SDS011;13578;53.450;15.496;2024-03-02T02:41:46;82.28;;;42.72;;
25721;SDS011;13578;53.450;15.496;2024-03-02T02:44:47;90.30;;;44.03;;
25721;SDS011;13578;53.450;15.496;2024-03-02T02:47:48;86.53;;;44.13;;
25721;SDS011;13578;53.450;15.496;2024-03-02T02:50:49;87.05;;;43.30;;
25721;SDS011;13578;53.450;15.496;2024-03-02T02:53:50;85.75;;;45.10;;
25721;SDS011;13578;53.450;15.496;2024-03-02T02:56:51;91.10;;;42.83;;
25721;SDS011;13578;53.450;15.496;2024-03-02T02:59:52;85.72;;;41.95;;
25721;SDS011;13578;53.450;15.496;2024-03-02T03:02:52;94.65;;;43.75;;
25721;SDS011;13578;53.450;15.496;2024-03-02T03:05:53;84.82;;;42.80;;
25721;SDS011;13578;53.450;15.496;2024-03-02T03:08:54;97.07;;;44.28;;
25721;SDS011;13578;53.450;15.496;2024-03-02T03:11:54;88.93;;;42.47;;
25721;SDS011;13578;53.450;15.496;2024-03-02T03:14:55;84.32;;;43.78;;
25721;SDS011;13578;53.450;15.496;2024-03-02T03:17:56;89.55;;;44.33;;
25721;SDS011;13578;53.450;15.496;2024-03-02T03:20:56;84.43;;;41.80;;
25721;SDS011;13578;53.450;15.496;2024-03-02T03:23:57;92.15;;;45.35;;
25721;SDS011;13578;53.450;15.496;2024-03-02T03:26:57;85.93;;;43.25;;
25721;SDS011;13578;53.450;15.496;2024-03-02T03:29:58;93.57;;;44.95;;
25721;SDS011;13578;53.450;15.496;2024-03-02T03:32:59;95.50;;;45.55;;
25721;SDS011;13578;53.450;15.496;2024-03-02T03:36:00;91.47;;;44.10;;
25721;SDS011;13578;53.450;15.496;2024-03-02T03:39:03;102.82;;;46.25;;
25721;SDS011;13578;53.450;15.496;2024-03-02T03:42:05;101.72;;;45.00;;
25721;SDS011;13578;53.450;15.496;2024-03-02T03:45:05;101.30;;;45.20;;
25721;SDS011;13578;53.450;15.496;2024-03-02T03:48:07;105.28;;;46.38;;
25721;SDS011;13578;53.450;15.496;2024-03-02T03:51:07;98.80;;;46.17;;
25721;SDS011;13578;53.450;15.496;2024-03-02T03:54:08;108.95;;;48.08;;
25721;SDS011;13578;53.450;15.496;2024-03-02T03:57:11;102.28;;;45.65;;
25721;SDS011;13578;53.450;15.496;2024-03-02T04:00:12;102.88;;;48.17;;
25721;SDS011;13578;53.450;15.496;2024-03-02T04:03:13;108.03;;;49.00;;
25721;SDS011;13578;53.450;15.496;2024-03-02T04:06:13;109.35;;;48.08;;
25721;SDS011;13578;53.450;15.496;2024-03-02T04:09:16;106.20;;;48.47;;
25721;SDS011;13578;53.450;15.496;2024-03-02T04:12:17;106.43;;;47.78;;
25721;SDS011;13578;53.450;15.496;2024-03-02T04:15:17;104.80;;;45.40;;
25721;SDS011;13578;53.450;15.496;2024-03-02T04:18:19;108.93;;;47.33;;
25721;SDS011;13578;53.450;15.496;2024-03-02T04:21:19;115.13;;;48.28;;
25721;SDS011;13578;53.450;15.496;2024-03-02T04:24:20;105.22;;;48.28;;
25721;SDS011;13578;53.450;15.496;2024-03-02T04:27:21;108.20;;;48.03;;
25721;SDS011;13578;53.450;15.496;2024-03-02T04:30:22;107.85;;;49.75;;
25721;SDS011;13578;53.450;15.496;2024-03-02T04:33:22;95.90;;;45.33;;
25721;SDS011;13578;53.450;15.496;2024-03-02T04:36:23;103.93;;;48.00;;
25721;SDS011;13578;53.450;15.496;2024-03-02T04:39:24;118.95;;;49.80;;
25721;SDS011;13578;53.450;15.496;2024-03-02T04:42:25;120.68;;;50.60;;
25721;SDS011;13578;53.450;15.496;2024-03-02T04:45:26;111.15;;;49.80;;
25721;SDS011;13578;53.450;15.496;2024-03-02T04:48:26;124.82;;;52.20;;
25721;SDS011;13578;53.450;15.496;2024-03-02T04:51:27;106.90;;;49.17;;
25721;SDS011;13578;53.450;15.496;2024-03-02T04:54:28;98.63;;;45.75;;
25721;SDS011;13578;53.450;15.496;2024-03-02T04:57:28;120.57;;;48.22;;
25721;SDS011;13578;53.450;15.496;2024-03-02T05:00:29;111.65;;;49.25;;
25721;SDS011;13578;53.450;15.496;2024-03-02T05:03:30;102.35;;;46.97;;
25721;SDS011;13578;53.450;15.496;2024-03-02T05:06:30;112.55;;;45.30;;
25721;SDS011;13578;53.450;15.496;2024-03-02T05:09:31;110.40;;;48.85;;
25721;SDS011;13578;53.450;15.496;2024-03-02T05:12:31;112.18;;;47.70;;
25721;SDS011;13578;53.450;15.496;2024-03-02T05:15:56;114.85;;;46.78;;
25721;SDS011;13578;53.450;15.496;2024-03-02T05:18:56;99.00;;;46.67;;
25721;SDS011;13578;53.450;15.496;2024-03-02T05:21:57;115.70;;;47.75;;
25721;SDS011;13578;53.450;15.496;2024-03-02T05:24:58;108.15;;;46.83;;
25721;SDS011;13578;53.450;15.496;2024-03-02T05:28:00;112.28;;;48.13;;
25721;SDS011;13578;53.450;15.496;2024-03-02T05:31:00;117.55;;;46.50;;
25721;SDS011;13578;53.450;15.496;2024-03-02T05:34:01;112.20;;;49.45;;
25721;SDS011;13578;53.450;15.496;2024-03-02T05:37:02;119.38;;;49.75;;
25721;SDS011;13578;53.450;15.496;2024-03-02T05:40:03;110.53;;;48.40;;
25721;SDS011;13578;53.450;15.496;2024-03-02T05:43:05;114.93;;;47.58;;
25721;SDS011;13578;53.450;15.496;2024-03-02T05:46:06;124.68;;;47.90;;
25721;SDS011;13578;53.450;15.496;2024-03-02T05:49:07;111.18;;;47.33;;
25721;SDS011;13578;53.450;15.496;2024-03-02T05:52:08;108.97;;;46.45;;
25721;SDS011;13578;53.450;15.496;2024-03-02T05:55:08;131.05;;;50.50;;
25721;SDS011;13578;53.450;15.496;2024-03-02T05:58:09;117.18;;;46.45;;
25721;SDS011;13578;53.450;15.496;2024-03-02T06:01:28;136.18;;;48.05;;
25721;SDS011;13578;53.450;15.496;2024-03-02T06:04:29;113.97;;;47.05;;
25721;SDS011;13578;53.450;15.496;2024-03-02T06:07:30;108.20;;;46.78;;
25721;SDS011;13578;53.450;15.496;2024-03-02T06:10:31;108.85;;;47.25;;
25721;SDS011;13578;53.450;15.496;2024-03-02T06:13:31;98.05;;;45.03;;
25721;SDS011;13578;53.450;15.496;2024-03-02T06:16:32;118.47;;;48.15;;
25721;SDS011;13578;53.450;15.496;2024-03-02T06:19:33;99.15;;;44.88;;
25721;SDS011;13578;53.450;15.496;2024-03-02T06:22:34;117.43;;;48.00;;
25721;SDS011;13578;53.450;15.496;2024-03-02T06:25:35;109.38;;;48.03;;
25721;SDS011;13578;53.450;15.496;2024-03-02T06:28:35;102.78;;;46.67;;
25721;SDS011;13578;53.450;15.496;2024-03-02T06:31:36;111.05;;;48.50;;
25721;SDS011;13578;53.450;15.496;2024-03-02T06:34:37;119.47;;;48.33;;
25721;SDS011;13578;53.450;15.496;2024-03-02T06:37:38;102.78;;;45.42;;
25721;SDS011;13578;53.450;15.496;2024-03-02T06:40:40;122.65;;;49.13;;
25721;SDS011;13578;53.450;15.496;2024-03-02T06:43:40;120.47;;;47.80;;
25721;SDS011;13578;53.450;15.496;2024-03-02T06:46:41;116.40;;;46.67;;
25721;SDS011;13578;53.450;15.496;2024-03-02T06:49:42;106.47;;;45.63;;
25721;SDS011;13578;53.450;15.496;2024-03-02T06:52:43;112.30;;;46.33;;
25721;SDS011;13578;53.450;15.496;2024-03-02T06:55:44;128.65;;;49.63;;
25721;SDS011;13578;53.450;15.496;2024-03-02T06:58:45;112.13;;;47.20;;
25721;SDS011;13578;53.450;15.496;2024-03-02T07:01:45;111.53;;;46.67;;
25721;SDS011;13578;53.450;15.496;2024-03-02T07:04:46;127.82;;;49.17;;
25721;SDS011;13578;53.450;15.496;2024-03-02T07:07:47;102.70;;;45.60;;
25721;SDS011;13578;53.450;15.496;2024-03-02T07:10:47;104.47;;;44.95;;
25721;SDS011;13578;53.450;15.496;2024-03-02T07:13:48;99.80;;;46.53;;
25721;SDS011;13578;53.450;15.496;2024-03-02T07:16:48;101.53;;;45.65;;
25721;SDS011;13578;53.450;15.496;2024-03-02T07:19:49;112.70;;;45.58;;
25721;SDS011;13578;53.450;15.496;2024-03-02T07:22:50;105.45;;;45.22;;
25721;SDS011;13578;53.450;15.496;2024-03-02T07:25:50;99.13;;;45.28;;
25721;SDS011;13578;53.450;15.496;2024-03-02T07:28:51;105.65;;;43.47;;
25721;SDS011;13578;53.450;15.496;2024-03-02T07:31:52;109.78;;;44.33;;
25721;SDS011;13578;53.450;15.496;2024-03-02T07:34:52;96.65;;;44.28;;
25721;SDS011;13578;53.450;15.496;2024-03-02T07:37:53;103.32;;;45.95;;
25721;SDS011;13578;53.450;15.496;2024-03-02T07:40:54;99.97;;;44.60;;
25721;SDS011;13578;53.450;15.496;2024-03-02T07:43:56;101.57;;;45.83;;
25721;SDS011;13578;53.450;15.496;2024-03-02T07:46:57;102.32;;;43.50;;
25721;SDS011;13578;53.450;15.496;2024-03-02T07:49:57;102.75;;;43.88;;
25721;SDS011;13578;53.450;15.496;2024-03-02T07:52:58;104.90;;;43.92;;
25721;SDS011;13578;53.450;15.496;2024-03-02T07:55:59;107.15;;;45.08;;
25721;SDS011;13578;53.450;15.496;2024-03-02T07:59:02;103.15;;;42.72;;
25721;SDS011;13578;53.450;15.496;2024-03-02T08:02:04;96.78;;;43.22;;
25721;SDS011;13578;53.450;15.496;2024-03-02T08:05:04;102.47;;;44.70;;
25721;SDS011;13578;53.450;15.496;2024-03-02T08:08:06;89.25;;;42.78;;
25721;SDS011;13578;53.450;15.496;2024-03-02T08:11:06;96.47;;;43.78;;
25721;SDS011;13578;53.450;15.496;2024-03-02T08:14:07;97.18;;;41.50;;
25721;SDS011;13578;53.450;15.496;2024-03-02T08:17:08;94.90;;;43.10;;
25721;SDS011;13578;53.450;15.496;2024-03-02T08:20:09;104.95;;;44.65;;
25721;SDS011;13578;53.450;15.496;2024-03-02T08:23:11;90.97;;;42.53;;
25721;SDS011;13578;53.450;15.496;2024-03-02T08:26:12;102.70;;;42.88;;
25721;SDS011;13578;53.450;15.496;2024-03-02T08:29:13;95.97;;;41.63;;
25721;SDS011;13578;53.450;15.496;2024-03-02T08:32:13;82.50;;;41.95;;
25721;SDS011;13578;53.450;15.496;2024-03-02T08:35:15;83.57;;;40.83;;
25721;SDS011;13578;53.450;15.496;2024-03-02T08:38:15;90.75;;;40.10;;
25721;SDS011;13578;53.450;15.496;2024-03-02T08:41:16;83.53;;;40.70;;
25721;SDS011;13578;53.450;15.496;2024-03-02T08:44:17;87.50;;;39.90;;
25721;SDS011;13578;53.450;15.496;2024-03-02T08:47:17;84.40;;;39.95;;
25721;SDS011;13578;53.450;15.496;2024-03-02T08:50:18;93.72;;;40.13;;
25721;SDS011;13578;53.450;15.496;2024-03-02T08:53:19;82.43;;;39.40;;
25721;SDS011;13578;53.450;15.496;2024-03-02T08:56:20;76.68;;;38.72;;
25721;SDS011;13578;53.450;15.496;2024-03-02T08:59:21;72.65;;;37.60;;
25721;SDS011;13578;53.450;15.496;2024-03-02T09:02:22;78.28;;;39.90;;
25721;SDS011;13578;53.450;15.496;2024-03-02T09:05:23;78.57;;;39.05;;
25721;SDS011;13578;53.450;15.496;2024-03-02T09:08:24;84.55;;;39.90;;
25721;SDS011;13578;53.450;15.496;2024-03-02T09:11:24;78.72;;;38.22;;
25721;SDS011;13578;53.450;15.496;2024-03-02T09:14:25;77.30;;;38.90;;
25721;SDS011;13578;53.450;15.496;2024-03-02T09:17:26;74.30;;;37.60;;
25721;SDS011;13578;53.450;15.496;2024-03-02T09:20:26;82.72;;;38.42;;
25721;SDS011;13578;53.450;15.496;2024-03-02T09:23:27;82.82;;;36.97;;
25721;SDS011;13578;53.450;15.496;2024-03-02T09:26:28;86.78;;;40.42;;
25721;SDS011;13578;53.450;15.496;2024-03-02T09:29:28;78.25;;;38.15;;
25721;SDS011;13578;53.450;15.496;2024-03-02T09:32:29;89.60;;;41.65;;
25721;SDS011;13578;53.450;15.496;2024-03-02T09:35:30;72.78;;;37.33;;
25721;SDS011;13578;53.450;15.496;2024-03-02T09:38:32;74.72;;;36.72;;
25721;SDS011;13578;53.450;15.496;2024-03-02T09:41:33;77.32;;;38.53;;
25721;SDS011;13578;53.450;15.496;2024-03-02T09:44:34;87.03;;;38.78;;
25721;SDS011;13578;53.450;15.496;2024-03-02T09:47:35;78.95;;;37.90;;
25721;SDS011;13578;53.450;15.496;2024-03-02T09:50:36;93.90;;;38.42;;
25721;SDS011;13578;53.450;15.496;2024-03-02T09:53:36;75.15;;;36.15;;
25721;SDS011;13578;53.450;15.496;2024-03-02T09:56:37;71.93;;;35.95;;
25721;SDS011;13578;53.450;15.496;2024-03-02T09:59:39;77.35;;;36.60;;
25721;SDS011;13578;53.450;15.496;2024-03-02T10:02:39;71.85;;;36.08;;
25721;SDS011;13578;53.450;15.496;2024-03-02T10:05:43;71.57;;;37.30;;
25721;SDS011;13578;53.450;15.496;2024-03-02T10:08:44;69.32;;;34.67;;
25721;SDS011;13578;53.450;15.496;2024-03-02T10:11:45;71.95;;;36.45;;
25721;SDS011;13578;53.450;15.496;2024-03-02T10:14:45;64.80;;;34.85;;
25721;SDS011;13578;53.450;15.496;2024-03-02T10:17:48;74.85;;;37.13;;
25721;SDS011;13578;53.450;15.496;2024-03-02T10:20:49;70.75;;;34.83;;
25721;SDS011;13578;53.450;15.496;2024-03-02T10:23:49;75.88;;;36.92;;
25721;SDS011;13578;53.450;15.496;2024-03-02T10:26:50;81.45;;;36.58;;
25721;SDS011;13578;53.450;15.496;2024-03-02T10:29:52;77.57;;;35.65;;
25721;SDS011;13578;53.450;15.496;2024-03-02T10:32:53;106.32;;;37.78;;
25721;SDS011;13578;53.450;15.496;2024-03-02T10:35:56;70.30;;;35.65;;
25721;SDS011;13578;53.450;15.496;2024-03-02T10:38:57;69.22;;;34.63;;
25721;SDS011;13578;53.450;15.496;2024-03-02T10:41:59;73.88;;;35.50;;
25721;SDS011;13578;53.450;15.496;2024-03-02T10:45:03;76.93;;;36.45;;
25721;SDS011;13578;53.450;15.496;2024-03-02T10:48:06;73.05;;;35.83;;
25721;SDS011;13578;53.450;15.496;2024-03-02T10:51:08;60.22;;;33.88;;
25721;SDS011;13578;53.450;15.496;2024-03-02T10:54:08;73.88;;;33.92;;
25721;SDS011;13578;53.450;15.496;2024-03-02T10:57:09;75.82;;;34.78;;
25721;SDS011;13578;53.450;15.496;2024-03-02T11:00:12;63.53;;;33.88;;
25721;SDS011;13578;53.450;15.496;2024-03-02T11:03:16;61.03;;;31.95;;
25721;SDS011;13578;53.450;15.496;2024-03-02T11:06:17;68.60;;;32.78;;
25721;SDS011;13578;53.450;15.496;2024-03-02T11:09:18;65.22;;;33.97;;
25721;SDS011;13578;53.450;15.496;2024-03-02T11:15:51;65.25;;;31.10;;
25721;SDS011;13578;53.450;15.496;2024-03-02T11:18:57;63.72;;;33.50;;
25721;SDS011;13578;53.450;15.496;2024-03-02T11:21:58;69.00;;;31.67;;
25721;SDS011;13578;53.450;15.496;2024-03-02T11:25:00;60.47;;;32.42;;
25721;SDS011;13578;53.450;15.496;2024-03-02T11:28:01;70.05;;;33.35;;
25721;SDS011;13578;53.450;15.496;2024-03-02T11:31:05;59.70;;;31.23;;
25721;SDS011;13578;53.450;15.496;2024-03-02T11:34:28;54.60;;;30.10;;
25721;SDS011;13578;53.450;15.496;2024-03-02T11:37:39;67.30;;;32.13;;
25721;SDS011;13578;53.450;15.496;2024-03-02T11:40:40;66.03;;;31.23;;
25721;SDS011;13578;53.450;15.496;2024-03-02T11:43:41;61.58;;;32.05;;
25721;SDS011;13578;53.450;15.496;2024-03-02T11:47:02;63.13;;;31.55;;
25721;SDS011;13578;53.450;15.496;2024-03-02T11:50:10;60.75;;;30.08;;
25721;SDS011;13578;53.450;15.496;2024-03-02T11:53:11;56.70;;;31.17;;
25721;SDS011;13578;53.450;15.496;2024-03-02T11:56:12;58.60;;;29.60;;
25721;SDS011;13578;53.450;15.496;2024-03-02T11:59:14;64.03;;;31.85;;
25721;SDS011;13578;53.450;15.496;2024-03-02T12:02:15;58.28;;;29.00;;
25721;SDS011;13578;53.450;15.496;2024-03-02T12:05:18;58.08;;;29.48;;
25721;SDS011;13578;53.450;15.496;2024-03-02T12:08:19;56.10;;;29.27;;
25721;SDS011;13578;53.450;15.496;2024-03-02T12:11:21;56.83;;;28.98;;
25721;SDS011;13578;53.450;15.496;2024-03-02T12:14:21;52.33;;;27.67;;
25721;SDS011;13578;53.450;15.496;2024-03-02T12:17:22;52.80;;;28.25;;
25721;SDS011;13578;53.450;15.496;2024-03-02T12:20:23;62.95;;;32.17;;
25721;SDS011;13578;53.450;15.496;2024-03-02T12:23:25;58.17;;;30.23;;
25721;SDS011;13578;53.450;15.496;2024-03-02T12:26:26;56.10;;;27.85;;
25721;SDS011;13578;53.450;15.496;2024-03-02T12:29:26;61.60;;;29.67;;
25721;SDS011;13578;53.450;15.496;2024-03-02T12:32:27;55.10;;;28.20;;
25721;SDS011;13578;53.450;15.496;2024-03-02T12:35:28;57.78;;;26.92;;
25721;SDS011;13578;53.450;15.496;2024-03-02T12:38:30;57.15;;;28.83;;
25721;SDS011;13578;53.450;15.496;2024-03-02T12:41:31;58.33;;;28.92;;
25721;SDS011;13578;53.450;15.496;2024-03-02T12:44:31;53.22;;;27.52;;
25721;SDS011;13578;53.450;15.496;2024-03-02T12:47:33;53.95;;;28.05;;
25721;SDS011;13578;53.450;15.496;2024-03-02T12:50:34;55.28;;;26.67;;
25721;SDS011;13578;53.450;15.496;2024-03-02T12:53:35;52.47;;;27.80;;
25721;SDS011;13578;53.450;15.496;2024-03-02T12:56:36;56.38;;;27.48;;
25721;SDS011;13578;53.450;15.496;2024-03-02T12:59:37;51.83;;;25.98;;
25721;SDS011;13578;53.450;15.496;2024-03-02T13:02:41;54.65;;;26.50;;
25721;SDS011;13578;53.450;15.496;2024-03-02T13:05:42;51.88;;;27.40;;
25721;SDS011;13578;53.450;15.496;2024-03-02T13:08:48;58.47;;;26.55;;
25721;SDS011;13578;53.450;15.496;2024-03-02T13:11:49;47.65;;;26.40;;
25721;SDS011;13578;53.450;15.496;2024-03-02T13:14:53;52.50;;;25.48;;
25721;SDS011;13578;53.450;15.496;2024-03-02T13:17:53;45.78;;;24.42;;
25721;SDS011;13578;53.450;15.496;2024-03-02T13:20:58;50.10;;;24.65;;
25721;SDS011;13578;53.450;15.496;2024-03-02T13:23:59;49.92;;;23.88;;
25721;SDS011;13578;53.450;15.496;2024-03-02T13:27:00;48.92;;;24.15;;
25721;SDS011;13578;53.450;15.496;2024-03-02T13:30:04;47.92;;;23.35;;
25721;SDS011;13578;53.450;15.496;2024-03-02T13:33:08;50.70;;;23.63;;
25721;SDS011;13578;53.450;15.496;2024-03-02T13:36:09;49.85;;;22.73;;
25721;SDS011;13578;53.450;15.496;2024-03-02T13:39:10;46.13;;;22.92;;
25721;SDS011;13578;53.450;15.496;2024-03-02T13:42:10;45.03;;;23.27;;
25721;SDS011;13578;53.450;15.496;2024-03-02T13:45:14;41.80;;;22.13;;
25721;SDS011;13578;53.450;15.496;2024-03-02T13:48:14;48.35;;;22.85;;
25721;SDS011;13578;53.450;15.496;2024-03-02T13:51:15;48.65;;;24.13;;
25721;SDS011;13578;53.450;15.496;2024-03-02T13:54:16;45.85;;;22.77;;
25721;SDS011;13578;53.450;15.496;2024-03-02T13:57:16;42.42;;;22.20;;
25721;SDS011;13578;53.450;15.496;2024-03-02T14:00:19;49.65;;;21.92;;
25721;SDS011;13578;53.450;15.496;2024-03-02T14:03:20;38.65;;;21.15;;
25721;SDS011;13578;53.450;15.496;2024-03-02T14:06:21;44.92;;;22.63;;
25721;SDS011;13578;53.450;15.496;2024-03-02T14:09:22;46.60;;;22.13;;
25721;SDS011;13578;53.450;15.496;2024-03-02T14:12:23;40.72;;;22.20;;
25721;SDS011;13578;53.450;15.496;2024-03-02T14:15:24;44.28;;;21.33;;
25721;SDS011;13578;53.450;15.496;2024-03-02T14:18:24;41.97;;;22.52;;
25721;SDS011;13578;53.450;15.496;2024-03-02T14:21:25;42.17;;;23.63;;
25721;SDS011;13578;53.450;15.496;2024-03-02T14:24:26;39.55;;;20.38;;
25721;SDS011;13578;53.450;15.496;2024-03-02T14:27:28;38.78;;;22.15;;
25721;SDS011;13578;53.450;15.496;2024-03-02T14:30:28;43.83;;;22.85;;
25721;SDS011;13578;53.450;15.496;2024-03-02T14:33:29;43.88;;;23.80;;
25721;SDS011;13578;53.450;15.496;2024-03-02T14:36:30;48.53;;;24.23;;
25721;SDS011;13578;53.450;15.496;2024-03-02T14:39:31;49.67;;;24.58;;
25721;SDS011;13578;53.450;15.496;2024-03-02T14:42:35;41.40;;;23.40;;
25721;SDS011;13578;53.450;15.496;2024-03-02T14:45:36;51.45;;;24.95;;
25721;SDS011;13578;53.450;15.496;2024-03-02T14:48:37;48.35;;;24.65;;
25721;SDS011;13578;53.450;15.496;2024-03-02T14:51:38;58.28;;;25.77;;
25721;SDS011;13578;53.450;15.496;2024-03-02T14:54:38;57.42;;;25.80;;
25721;SDS011;13578;53.450;15.496;2024-03-02T14:57:39;46.33;;;24.05;;
25721;SDS011;13578;53.450;15.496;2024-03-02T15:00:39;54.45;;;25.63;;
25721;SDS011;13578;53.450;15.496;2024-03-02T15:03:40;49.70;;;24.08;;
25721;SDS011;13578;53.450;15.496;2024-03-02T15:06:41;57.13;;;25.70;;
25721;SDS011;13578;53.450;15.496;2024-03-02T15:09:42;45.35;;;24.85;;
25721;SDS011;13578;53.450;15.496;2024-03-02T15:12:42;42.22;;;23.58;;
25721;SDS011;13578;53.450;15.496;2024-03-02T15:15:43;50.60;;;24.20;;
25721;SDS011;13578;53.450;15.496;2024-03-02T15:18:44;50.70;;;23.52;;
25721;SDS011;13578;53.450;15.496;2024-03-02T15:21:46;46.25;;;23.77;;
25721;SDS011;13578;53.450;15.496;2024-03-02T15:24:46;43.28;;;23.17;;
25721;SDS011;13578;53.450;15.496;2024-03-02T15:27:47;43.28;;;23.42;;
25721;SDS011;13578;53.450;15.496;2024-03-02T15:30:47;45.17;;;23.77;;
25721;SDS011;13578;53.450;15.496;2024-03-02T15:33:48;44.15;;;22.73;;
25721;SDS011;13578;53.450;15.496;2024-03-02T15:36:50;42.08;;;22.13;;
25721;SDS011;13578;53.450;15.496;2024-03-02T15:39:50;48.30;;;22.77;;
25721;SDS011;13578;53.450;15.496;2024-03-02T15:42:51;45.15;;;23.77;;
25721;SDS011;13578;53.450;15.496;2024-03-02T15:45:52;47.47;;;25.88;;
25721;SDS011;13578;53.450;15.496;2024-03-02T15:48:52;42.90;;;23.17;;
25721;SDS011;13578;53.450;15.496;2024-03-02T15:51:53;44.00;;;24.23;;
25721;SDS011;13578;53.450;15.496;2024-03-02T15:54:54;43.13;;;23.60;;
25721;SDS011;13578;53.450;15.496;2024-03-02T15:57:54;49.63;;;24.42;;
25721;SDS011;13578;53.450;15.496;2024-03-02T16:00:56;48.42;;;23.73;;
25721;SDS011;13578;53.450;15.496;2024-03-02T16:03:58;47.65;;;24.55;;
25721;SDS011;13578;53.450;15.496;2024-03-02T16:06:58;54.72;;;26.83;;
25721;SDS011;13578;53.450;15.496;2024-03-02T16:09:59;47.67;;;25.15;;
25721;SDS011;13578;53.450;15.496;2024-03-02T16:13:04;54.40;;;26.92;;
25721;SDS011;13578;53.450;15.496;2024-03-02T16:16:06;57.95;;;27.17;;
25721;SDS011;13578;53.450;15.496;2024-03-02T16:19:06;51.97;;;27.10;;
25721;SDS011;13578;53.450;15.496;2024-03-02T16:22:07;51.33;;;26.70;;
25721;SDS011;13578;53.450;15.496;2024-03-02T16:25:11;48.83;;;26.30;;
25721;SDS011;13578;53.450;15.496;2024-03-02T16:28:11;52.75;;;27.48;;
25721;SDS011;13578;53.450;15.496;2024-03-02T16:31:12;60.65;;;27.20;;
25721;SDS011;13578;53.450;15.496;2024-03-02T16:34:15;50.40;;;27.48;;
25721;SDS011;13578;53.450;15.496;2024-03-02T16:37:16;54.53;;;27.95;;
25721;SDS011;13578;53.450;15.496;2024-03-02T16:40:16;52.22;;;28.10;;
25721;SDS011;13578;53.450;15.496;2024-03-02T16:43:17;50.75;;;26.60;;
25721;SDS011;13578;53.450;15.496;2024-03-02T16:46:18;59.05;;;28.58;;
25721;SDS011;13578;53.450;15.496;2024-03-02T16:49:19;52.05;;;28.50;;
25721;SDS011;13578;53.450;15.496;2024-03-02T16:52:20;47.60;;;25.02;;
25721;SDS011;13578;53.450;15.496;2024-03-02T16:55:24;50.22;;;24.98;;
25721;SDS011;13578;53.450;15.496;2024-03-02T16:58:24;46.35;;;26.48;;
25721;SDS011;13578;53.450;15.496;2024-03-02T17:01:25;58.97;;;28.83;;
25721;SDS011;13578;53.450;15.496;2024-03-02T17:04:27;58.15;;;27.58;;
25721;SDS011;13578;53.450;15.496;2024-03-02T17:07:29;69.03;;;27.85;;
25721;SDS011;13578;53.450;15.496;2024-03-02T17:10:30;53.40;;;26.30;;
25721;SDS011;13578;53.450;15.496;2024-03-02T17:13:31;54.30;;;28.58;;
25721;SDS011;13578;53.450;15.496;2024-03-02T17:16:32;46.00;;;26.35;;
25721;SDS011;13578;53.450;15.496;2024-03-02T17:19:32;60.05;;;30.40;;
25721;SDS011;13578;53.450;15.496;2024-03-02T17:22:33;52.25;;;27.67;;
25721;SDS011;13578;53.450;15.496;2024-03-02T17:25:34;48.00;;;26.42;;
25721;SDS011;13578;53.450;15.496;2024-03-02T17:28:34;48.17;;;25.67;;